KHQM/HQM METAR and TAF weather

Enter ICAO airport designator
Station Type Date Time Source
KHQM METAR 2021/07/29 07:53 UTC NOAA

KHQM 290753Z AUTO 26003KT 10SM CLR 16/13 A3009 RMK AO2 SLP193 T01610133 402560128


Station Type Date Time Source
KHQM Decoded METAR 2021/07/29 07:53 UTC NOAA

HOQUIAM BOWERMAN AIRPORT, WA, United States (KHQM) 46-58N 123-56W 7M
Jul 29, 2021 - 03:53 AM EDT / 2021.07.29 0753 UTC
Wind: from the W (260 degrees) at 3 MPH (3 KT):0
Visibility: 10 mile(s):0
Sky conditions: clear
Temperature: 61.0 F (16.1 C)
Dew Point: 55.9 F (13.3 C)
Relative Humidity: 83%
Pressure (altimeter): 30.09 in. Hg (1018 hPa)
ob: KHQM 290753Z AUTO 26003KT 10SM CLR 16/13 A3009 RMK AO2 SLP193 T01610133 402560128
cycle: 8

Station Type Date Time Source
KHQM TAF 2021/07/29 06:42 UTC NOAA

TAF KHQM 290540Z 2906/3006 VRB03KT P6SM FEW250
FM290900 VRB03KT 2SM BR OVC006
FM291700 25013KT P6SM SCT250

Example: see airport list